Miraero Ace — 3FIH4 — position and weather

sailwx.info

Track history (hours):
 
Tides and Currents Weather Stations Pressure Air Temp Water Temp Dewpoint Dewpoint Depression Visibility Wind Speed Wind Dir Waves Ship Positions

Miraero Ace

Last reported at 2014-Nov-22 12:34 UTC. Time now 2014-Nov-22 13:02 UTC.
Position N 54°26' E 000°14'.

Length 229 m; draft 14.3 m.

Type: Cargo ship. MMSI: 373216000.

Date/timePositionNaut miles runAvg speedWind from/ knotsBaromVisibWave heightAir tempDewpointWater temp
2014-Nov-22 12:34N 54°26' E 000°14'1111.3
2014-Nov-22 11:34N 54°21' E 000°31'1211.8
2014-Nov-22 10:34N 54°15' E 000°49'10010.5
2014-Nov-22 01:05N 53°00' E 002°39'712.6
2014-Nov-22 00:32N 52°53' E 002°39'7010.0
2014-Nov-21 17:33N 51°44' E 002°30'1010.6
2014-Nov-21 16:33N 51°35' E 002°19'1110.8
2014-Nov-21 15:30N 51°26' E 002°08'1111.5
2014-Nov-21 14:34N 51°19' E 001°56'1212.4
2014-Nov-21 13:34N 51°09' E 001°44'1313.2
2014-Nov-21 12:33N 50°58' E 001°32'7411.7
2014-Nov-21 06:14N 50°18' W 000°07'1012.0
2014-Nov-21 05:25N 50°15' W 000°21'1011.5
2014-Nov-21 04:34N 50°12' W 000°36'  
Track history (hours):
 
Tides and Currents Weather Stations Pressure Air Temp Water Temp Dewpoint Dewpoint Depression Visibility Wind Speed Wind Dir Waves Ship Positions

Miraero Ace

Last reported at 2014-Nov-22 12:34 UTC. Time now 2014-Nov-22 13:02 UTC.
Position N 54°26' E 000°14'.

Length 229 m; draft 14.3 m.

Type: Cargo ship. MMSI: 373216000.

Date/timePositionNaut miles runAvg speedWind from/ knotsBaromVisibWave heightAir tempDewpointWater temp
2014-Nov-22 12:34N 54°26' E 000°14'1111.3
2014-Nov-22 11:34N 54°21' E 000°31'1211.8
2014-Nov-22 10:34N 54°15' E 000°49'10010.5
2014-Nov-22 01:05N 53°00' E 002°39'712.6
2014-Nov-22 00:32N 52°53' E 002°39'7010.0
2014-Nov-21 17:33N 51°44' E 002°30'1010.6
2014-Nov-21 16:33N 51°35' E 002°19'1110.8
2014-Nov-21 15:30N 51°26' E 002°08'1111.5
2014-Nov-21 14:34N 51°19' E 001°56'1212.4
2014-Nov-21 13:34N 51°09' E 001°44'1313.2
2014-Nov-21 12:33N 50°58' E 001°32'7411.7
2014-Nov-21 06:14N 50°18' W 000°07'1012.0
2014-Nov-21 05:25N 50°15' W 000°21'1011.5
2014-Nov-21 04:34N 50°12' W 000°36'  

Dump ship's entire track history